sensor_id;sensor_type;location;lat;lon;timestamp;temperature;humidity
20650;DHT22;10484;48.736;9.332;2023-04-09T00:01:03;9.50;1.00
20650;DHT22;10484;48.736;9.332;2023-04-09T00:03:29;9.50;1.00
20650;DHT22;10484;48.736;9.332;2023-04-09T00:05:54;9.50;1.00
20650;DHT22;10484;48.736;9.332;2023-04-09T00:08:20;9.50;1.00
20650;DHT22;10484;48.736;9.332;2023-04-09T00:10:48;9.50;1.00
20650;DHT22;10484;48.736;9.332;2023-04-09T00:13:14;9.40;1.00
20650;DHT22;10484;48.736;9.332;2023-04-09T00:15:39;9.40;1.00
20650;DHT22;10484;48.736;9.332;2023-04-09T00:18:05;9.30;1.00
20650;DHT22;10484;48.736;9.332;2023-04-09T00:20:31;9.30;1.00
20650;DHT22;10484;48.736;9.332;2023-04-09T00:22:56;9.40;1.00
20650;DHT22;10484;48.736;9.332;2023-04-09T00:25:22;9.30;1.00
20650;DHT22;10484;48.736;9.332;2023-04-09T00:27:48;9.40;1.00
20650;DHT22;10484;48.736;9.332;2023-04-09T00:30:14;9.30;1.00
20650;DHT22;10484;48.736;9.332;2023-04-09T00:32:40;9.30;1.00
20650;DHT22;10484;48.736;9.332;2023-04-09T00:35:06;9.30;1.00
20650;DHT22;10484;48.736;9.332;2023-04-09T00:37:32;9.30;1.00
20650;DHT22;10484;48.736;9.332;2023-04-09T00:39:57;9.30;1.00
20650;DHT22;10484;48.736;9.332;2023-04-09T00:42:23;9.30;1.00
20650;DHT22;10484;48.736;9.332;2023-04-09T00:44:48;9.30;1.00
20650;DHT22;10484;48.736;9.332;2023-04-09T00:47:14;9.30;1.00
20650;DHT22;10484;48.736;9.332;2023-04-09T00:49:40;9.20;1.00
20650;DHT22;10484;48.736;9.332;2023-04-09T00:52:06;9.20;1.00
20650;DHT22;10484;48.736;9.332;2023-04-09T00:54:32;9.20;1.00
20650;DHT22;10484;48.736;9.332;2023-04-09T00:56:58;9.10;1.00
20650;DHT22;10484;48.736;9.332;2023-04-09T00:59:24;9.20;1.00
20650;DHT22;10484;48.736;9.332;2023-04-09T01:01:50;9.10;1.00
20650;DHT22;10484;48.736;9.332;2023-04-09T01:04:16;9.10;1.00
20650;DHT22;10484;48.736;9.332;2023-04-09T01:06:50;9.10;1.00
20650;DHT22;10484;48.736;9.332;2023-04-09T01:09:30;9.10;1.00
20650;DHT22;10484;48.736;9.332;2023-04-09T01:12:01;9.10;1.00
20650;DHT22;10484;48.736;9.332;2023-04-09T01:14:39;9.10;1.00
20650;DHT22;10484;48.736;9.332;2023-04-09T01:17:25;9.10;1.00
20650;DHT22;10484;48.736;9.332;2023-04-09T01:20:02;9.10;1.00
20650;DHT22;10484;48.736;9.332;2023-04-09T01:25:36;9.00;1.00
20650;DHT22;10484;48.736;9.332;2023-04-09T01:30:34;9.00;1.00
20650;DHT22;10484;48.736;9.332;2023-04-09T01:33:00;9.00;1.00
20650;DHT22;10484;48.736;9.332;2023-04-09T01:35:28;8.90;1.00
20650;DHT22;10484;48.736;9.332;2023-04-09T01:37:54;8.90;1.00
20650;DHT22;10484;48.736;9.332;2023-04-09T01:40:20;8.90;1.00
20650;DHT22;10484;48.736;9.332;2023-04-09T01:42:47;8.90;1.00
20650;DHT22;10484;48.736;9.332;2023-04-09T01:45:13;8.90;1.00
20650;DHT22;10484;48.736;9.332;2023-04-09T01:47:40;8.90;1.00
20650;DHT22;10484;48.736;9.332;2023-04-09T01:50:06;8.90;1.00
20650;DHT22;10484;48.736;9.332;2023-04-09T01:52:32;8.90;1.00
20650;DHT22;10484;48.736;9.332;2023-04-09T01:54:58;8.90;1.00
20650;DHT22;10484;48.736;9.332;2023-04-09T01:57:23;8.90;1.00
20650;DHT22;10484;48.736;9.332;2023-04-09T01:59:49;8.90;1.00
20650;DHT22;10484;48.736;9.332;2023-04-09T02:02:24;8.90;1.00
20650;DHT22;10484;48.736;9.332;2023-04-09T02:04:53;8.80;1.00
20650;DHT22;10484;48.736;9.332;2023-04-09T02:07:38;8.80;1.00
20650;DHT22;10484;48.736;9.332;2023-04-09T02:10:08;8.80;1.00
20650;DHT22;10484;48.736;9.332;2023-04-09T02:12:40;8.80;1.00
20650;DHT22;10484;48.736;9.332;2023-04-09T02:15:07;8.80;1.00
20650;DHT22;10484;48.736;9.332;2023-04-09T02:17:33;8.80;1.00
20650;DHT22;10484;48.736;9.332;2023-04-09T02:19:59;8.80;1.00
20650;DHT22;10484;48.736;9.332;2023-04-09T02:22:25;8.80;1.00
20650;DHT22;10484;48.736;9.332;2023-04-09T02:24:50;8.80;1.00
20650;DHT22;10484;48.736;9.332;2023-04-09T02:27:16;8.80;1.00
20650;DHT22;10484;48.736;9.332;2023-04-09T02:29:41;8.70;1.00
20650;DHT22;10484;48.736;9.332;2023-04-09T02:32:07;8.80;1.00
20650;DHT22;10484;48.736;9.332;2023-04-09T02:34:33;8.70;1.00
20650;DHT22;10484;48.736;9.332;2023-04-09T02:36:58;8.70;1.00
20650;DHT22;10484;48.736;9.332;2023-04-09T02:39:24;8.70;1.00
20650;DHT22;10484;48.736;9.332;2023-04-09T02:41:49;8.70;1.00
20650;DHT22;10484;48.736;9.332;2023-04-09T02:44:15;8.60;1.00
20650;DHT22;10484;48.736;9.332;2023-04-09T02:46:41;8.70;1.00
20650;DHT22;10484;48.736;9.332;2023-04-09T02:49:06;8.60;1.00
20650;DHT22;10484;48.736;9.332;2023-04-09T02:51:35;8.60;1.00
20650;DHT22;10484;48.736;9.332;2023-04-09T02:54:01;8.60;1.00
20650;DHT22;10484;48.736;9.332;2023-04-09T02:56:27;8.60;1.00
20650;DHT22;10484;48.736;9.332;2023-04-09T02:58:52;8.50;1.00
20650;DHT22;10484;48.736;9.332;2023-04-09T03:01:19;8.50;1.00
20650;DHT22;10484;48.736;9.332;2023-04-09T03:03:45;8.50;1.00
20650;DHT22;10484;48.736;9.332;2023-04-09T03:06:11;8.50;1.00
20650;DHT22;10484;48.736;9.332;2023-04-09T03:08:36;8.50;1.00
20650;DHT22;10484;48.736;9.332;2023-04-09T03:11:02;8.50;1.00
20650;DHT22;10484;48.736;9.332;2023-04-09T03:13:27;8.50;1.00
20650;DHT22;10484;48.736;9.332;2023-04-09T03:15:53;8.50;1.00
20650;DHT22;10484;48.736;9.332;2023-04-09T03:18:19;8.50;1.00
20650;DHT22;10484;48.736;9.332;2023-04-09T03:20:44;8.50;1.00
20650;DHT22;10484;48.736;9.332;2023-04-09T03:23:10;8.50;1.00
20650;DHT22;10484;48.736;9.332;2023-04-09T03:25:36;8.40;1.00
20650;DHT22;10484;48.736;9.332;2023-04-09T03:28:02;8.40;1.00
20650;DHT22;10484;48.736;9.332;2023-04-09T03:30:28;8.40;1.00
20650;DHT22;10484;48.736;9.332;2023-04-09T03:32:53;8.40;1.00
20650;DHT22;10484;48.736;9.332;2023-04-09T03:35:19;8.40;1.00
20650;DHT22;10484;48.736;9.332;2023-04-09T03:37:45;8.40;1.00
20650;DHT22;10484;48.736;9.332;2023-04-09T03:40:11;8.30;1.00
20650;DHT22;10484;48.736;9.332;2023-04-09T03:42:37;8.40;1.00
20650;DHT22;10484;48.736;9.332;2023-04-09T03:45:03;8.30;1.00
20650;DHT22;10484;48.736;9.332;2023-04-09T03:47:29;8.30;1.00
20650;DHT22;10484;48.736;9.332;2023-04-09T03:49:55;8.30;1.00
20650;DHT22;10484;48.736;9.332;2023-04-09T03:52:20;8.40;1.00
20650;DHT22;10484;48.736;9.332;2023-04-09T03:54:46;8.30;1.00
20650;DHT22;10484;48.736;9.332;2023-04-09T03:57:11;8.30;1.00
20650;DHT22;10484;48.736;9.332;2023-04-09T03:59:37;8.30;1.00
20650;DHT22;10484;48.736;9.332;2023-04-09T04:02:02;8.20;1.00
20650;DHT22;10484;48.736;9.332;2023-04-09T04:04:28;8.20;1.00
20650;DHT22;10484;48.736;9.332;2023-04-09T04:06:53;8.20;1.00
20650;DHT22;10484;48.736;9.332;2023-04-09T04:09:19;8.20;1.00
20650;DHT22;10484;48.736;9.332;2023-04-09T04:11:44;8.20;1.00
20650;DHT22;10484;48.736;9.332;2023-04-09T04:14:10;8.20;1.00
20650;DHT22;10484;48.736;9.332;2023-04-09T04:16:36;8.20;1.00
20650;DHT22;10484;48.736;9.332;2023-04-09T04:19:01;8.20;1.00
20650;DHT22;10484;48.736;9.332;2023-04-09T04:21:27;8.20;1.00
20650;DHT22;10484;48.736;9.332;2023-04-09T04:23:52;8.10;1.00
20650;DHT22;10484;48.736;9.332;2023-04-09T04:26:18;8.10;1.00
20650;DHT22;10484;48.736;9.332;2023-04-09T04:28:43;8.10;1.00
20650;DHT22;10484;48.736;9.332;2023-04-09T04:31:10;8.10;1.00
20650;DHT22;10484;48.736;9.332;2023-04-09T04:33:38;8.10;1.00
20650;DHT22;10484;48.736;9.332;2023-04-09T04:36:06;8.00;1.00
20650;DHT22;10484;48.736;9.332;2023-04-09T04:38:32;8.00;1.00
20650;DHT22;10484;48.736;9.332;2023-04-09T04:40:58;8.00;1.00
20650;DHT22;10484;48.736;9.332;2023-04-09T04:43:23;8.00;1.00
20650;DHT22;10484;48.736;9.332;2023-04-09T04:45:49;8.00;1.00
20650;DHT22;10484;48.736;9.332;2023-04-09T04:48:15;8.00;1.00
20650;DHT22;10484;48.736;9.332;2023-04-09T04:50:40;7.90;1.00
20650;DHT22;10484;48.736;9.332;2023-04-09T04:53:06;7.90;1.00
20650;DHT22;10484;48.736;9.332;2023-04-09T04:55:34;7.90;1.00
20650;DHT22;10484;48.736;9.332;2023-04-09T04:58:00;7.90;1.00
20650;DHT22;10484;48.736;9.332;2023-04-09T05:00:26;7.90;1.00
20650;DHT22;10484;48.736;9.332;2023-04-09T05:02:51;7.90;1.00
20650;DHT22;10484;48.736;9.332;2023-04-09T05:05:17;7.90;1.00
20650;DHT22;10484;48.736;9.332;2023-04-09T05:07:42;7.90;1.00
20650;DHT22;10484;48.736;9.332;2023-04-09T05:10:08;7.90;1.00
20650;DHT22;10484;48.736;9.332;2023-04-09T05:12:34;7.80;1.00
20650;DHT22;10484;48.736;9.332;2023-04-09T05:15:00;7.80;1.00
20650;DHT22;10484;48.736;9.332;2023-04-09T05:17:25;7.80;1.00
20650;DHT22;10484;48.736;9.332;2023-04-09T05:19:52;7.80;1.00
20650;DHT22;10484;48.736;9.332;2023-04-09T05:22:18;7.80;1.00
20650;DHT22;10484;48.736;9.332;2023-04-09T05:24:43;7.80;1.00
20650;DHT22;10484;48.736;9.332;2023-04-09T05:27:09;7.80;1.00
20650;DHT22;10484;48.736;9.332;2023-04-09T05:29:34;7.80;1.00
20650;DHT22;10484;48.736;9.332;2023-04-09T05:32:00;7.80;1.00
20650;DHT22;10484;48.736;9.332;2023-04-09T05:34:25;7.80;1.00
20650;DHT22;10484;48.736;9.332;2023-04-09T05:36:52;7.90;1.00
20650;DHT22;10484;48.736;9.332;2023-04-09T05:39:17;7.90;1.00
20650;DHT22;10484;48.736;9.332;2023-04-09T05:41:43;7.90;1.00
20650;DHT22;10484;48.736;9.332;2023-04-09T05:44:10;7.90;1.00
20650;DHT22;10484;48.736;9.332;2023-04-09T05:46:36;7.90;1.00
20650;DHT22;10484;48.736;9.332;2023-04-09T05:49:02;7.90;1.00
20650;DHT22;10484;48.736;9.332;2023-04-09T05:51:27;7.90;1.00
20650;DHT22;10484;48.736;9.332;2023-04-09T05:53:53;7.90;1.00
20650;DHT22;10484;48.736;9.332;2023-04-09T05:56:19;8.00;1.00
20650;DHT22;10484;48.736;9.332;2023-04-09T05:58:47;8.00;1.00
20650;DHT22;10484;48.736;9.332;2023-04-09T06:01:12;8.00;1.00
20650;DHT22;10484;48.736;9.332;2023-04-09T06:03:38;8.00;1.00
20650;DHT22;10484;48.736;9.332;2023-04-09T06:06:04;8.00;1.00
20650;DHT22;10484;48.736;9.332;2023-04-09T06:08:30;8.00;1.00
20650;DHT22;10484;48.736;9.332;2023-04-09T06:10:55;8.00;1.00
20650;DHT22;10484;48.736;9.332;2023-04-09T06:13:21;8.00;1.00
20650;DHT22;10484;48.736;9.332;2023-04-09T06:15:46;8.10;1.00
20650;DHT22;10484;48.736;9.332;2023-04-09T06:18:12;8.10;1.00
20650;DHT22;10484;48.736;9.332;2023-04-09T06:20:38;8.10;1.00
20650;DHT22;10484;48.736;9.332;2023-04-09T06:23:04;8.00;1.00
20650;DHT22;10484;48.736;9.332;2023-04-09T06:25:29;8.10;1.00
20650;DHT22;10484;48.736;9.332;2023-04-09T06:27:56;8.10;1.00
20650;DHT22;10484;48.736;9.332;2023-04-09T06:30:21;8.10;1.00
20650;DHT22;10484;48.736;9.332;2023-04-09T06:32:47;8.10;1.00
20650;DHT22;10484;48.736;9.332;2023-04-09T06:35:14;8.10;1.00
20650;DHT22;10484;48.736;9.332;2023-04-09T06:37:40;8.10;1.00
20650;DHT22;10484;48.736;9.332;2023-04-09T06:40:06;8.10;1.00
20650;DHT22;10484;48.736;9.332;2023-04-09T06:42:32;8.10;1.00
20650;DHT22;10484;48.736;9.332;2023-04-09T06:44:58;8.10;1.00
20650;DHT22;10484;48.736;9.332;2023-04-09T06:47:23;8.10;1.00
20650;DHT22;10484;48.736;9.332;2023-04-09T06:49:49;8.10;1.00
20650;DHT22;10484;48.736;9.332;2023-04-09T06:52:15;8.20;1.00
20650;DHT22;10484;48.736;9.332;2023-04-09T06:54:40;8.20;1.00
20650;DHT22;10484;48.736;9.332;2023-04-09T06:57:07;8.20;1.00
20650;DHT22;10484;48.736;9.332;2023-04-09T06:59:33;8.20;1.00
20650;DHT22;10484;48.736;9.332;2023-04-09T07:01:59;8.20;1.00
20650;DHT22;10484;48.736;9.332;2023-04-09T07:04:25;8.30;1.00
20650;DHT22;10484;48.736;9.332;2023-04-09T07:06:51;8.30;1.00
20650;DHT22;10484;48.736;9.332;2023-04-09T07:09:19;8.30;1.00
20650;DHT22;10484;48.736;9.332;2023-04-09T07:11:45;8.30;1.00
20650;DHT22;10484;48.736;9.332;2023-04-09T07:14:11;8.30;1.00
20650;DHT22;10484;48.736;9.332;2023-04-09T07:16:36;8.40;1.00
20650;DHT22;10484;48.736;9.332;2023-04-09T07:19:02;8.40;1.00
20650;DHT22;10484;48.736;9.332;2023-04-09T07:21:27;8.40;1.00
20650;DHT22;10484;48.736;9.332;2023-04-09T07:23:53;8.40;1.00
20650;DHT22;10484;48.736;9.332;2023-04-09T07:26:19;8.40;1.00
20650;DHT22;10484;48.736;9.332;2023-04-09T07:28:44;8.40;1.00
20650;DHT22;10484;48.736;9.332;2023-04-09T07:31:10;8.50;1.00
20650;DHT22;10484;48.736;9.332;2023-04-09T07:33:36;8.50;1.00
20650;DHT22;10484;48.736;9.332;2023-04-09T07:36:02;8.60;1.00
20650;DHT22;10484;48.736;9.332;2023-04-09T07:38:30;8.60;1.00
20650;DHT22;10484;48.736;9.332;2023-04-09T07:40:56;8.60;1.00
20650;DHT22;10484;48.736;9.332;2023-04-09T07:43:21;8.70;1.00
20650;DHT22;10484;48.736;9.332;2023-04-09T07:45:50;8.70;1.00
20650;DHT22;10484;48.736;9.332;2023-04-09T07:48:16;8.80;1.00
20650;DHT22;10484;48.736;9.332;2023-04-09T07:50:42;8.80;1.00
20650;DHT22;10484;48.736;9.332;2023-04-09T07:53:09;8.90;1.00
20650;DHT22;10484;48.736;9.332;2023-04-09T07:55:36;9.00;1.00
20650;DHT22;10484;48.736;9.332;2023-04-09T07:58:02;9.00;1.00
20650;DHT22;10484;48.736;9.332;2023-04-09T08:00:29;9.10;1.00
20650;DHT22;10484;48.736;9.332;2023-04-09T08:02:54;9.20;1.00
20650;DHT22;10484;48.736;9.332;2023-04-09T08:05:21;9.30;1.00
20650;DHT22;10484;48.736;9.332;2023-04-09T08:07:49;9.40;1.00
20650;DHT22;10484;48.736;9.332;2023-04-09T08:10:15;9.40;1.00
20650;DHT22;10484;48.736;9.332;2023-04-09T08:12:41;9.50;1.00
20650;DHT22;10484;48.736;9.332;2023-04-09T08:15:08;9.60;1.00
20650;DHT22;10484;48.736;9.332;2023-04-09T08:17:34;9.70;1.00
20650;DHT22;10484;48.736;9.332;2023-04-09T08:20:02;9.70;1.00
20650;DHT22;10484;48.736;9.332;2023-04-09T08:22:28;9.80;1.00
20650;DHT22;10484;48.736;9.332;2023-04-09T08:24:55;9.80;1.00
20650;DHT22;10484;48.736;9.332;2023-04-09T08:27:21;9.90;1.00
20650;DHT22;10484;48.736;9.332;2023-04-09T08:29:47;10.00;1.00
20650;DHT22;10484;48.736;9.332;2023-04-09T08:32:12;10.10;1.00
20650;DHT22;10484;48.736;9.332;2023-04-09T08:34:38;10.20;1.00
20650;DHT22;10484;48.736;9.332;2023-04-09T08:37:03;10.20;1.00
20650;DHT22;10484;48.736;9.332;2023-04-09T08:39:29;10.30;1.00
20650;DHT22;10484;48.736;9.332;2023-04-09T08:41:57;10.40;1.00
20650;DHT22;10484;48.736;9.332;2023-04-09T08:44:27;10.40;1.00
20650;DHT22;10484;48.736;9.332;2023-04-09T08:46:53;10.40;1.00
20650;DHT22;10484;48.736;9.332;2023-04-09T08:49:19;10.50;1.00
20650;DHT22;10484;48.736;9.332;2023-04-09T08:51:46;10.60;1.00
20650;DHT22;10484;48.736;9.332;2023-04-09T08:54:14;10.70;1.00
20650;DHT22;10484;48.736;9.332;2023-04-09T08:56:41;10.70;1.00
20650;DHT22;10484;48.736;9.332;2023-04-09T08:59:08;10.80;1.00
20650;DHT22;10484;48.736;9.332;2023-04-09T09:01:33;10.90;1.00
20650;DHT22;10484;48.736;9.332;2023-04-09T09:04:07;10.90;1.00
20650;DHT22;10484;48.736;9.332;2023-04-09T09:06:34;11.00;1.00
20650;DHT22;10484;48.736;9.332;2023-04-09T09:09:07;11.10;1.00
20650;DHT22;10484;48.736;9.332;2023-04-09T09:11:34;11.20;1.00
20650;DHT22;10484;48.736;9.332;2023-04-09T09:14:05;11.20;1.00
20650;DHT22;10484;48.736;9.332;2023-04-09T09:16:37;11.30;1.00
20650;DHT22;10484;48.736;9.332;2023-04-09T09:19:26;11.40;1.00
20650;DHT22;10484;48.736;9.332;2023-04-09T09:21:59;11.40;1.00
20650;DHT22;10484;48.736;9.332;2023-04-09T09:24:25;11.50;1.00
20650;DHT22;10484;48.736;9.332;2023-04-09T09:26:51;11.50;1.00
20650;DHT22;10484;48.736;9.332;2023-04-09T09:29:16;11.60;1.00
20650;DHT22;10484;48.736;9.332;2023-04-09T09:31:46;11.70;1.00
20650;DHT22;10484;48.736;9.332;2023-04-09T09:34:14;11.80;1.00
20650;DHT22;10484;48.736;9.332;2023-04-09T09:36:40;11.90;1.00
20650;DHT22;10484;48.736;9.332;2023-04-09T09:39:05;12.00;1.00
20650;DHT22;10484;48.736;9.332;2023-04-09T09:41:34;12.00;1.00
20650;DHT22;10484;48.736;9.332;2023-04-09T09:44:00;12.10;1.00
20650;DHT22;10484;48.736;9.332;2023-04-09T09:46:30;12.20;1.00
20650;DHT22;10484;48.736;9.332;2023-04-09T09:48:58;12.30;1.00
20650;DHT22;10484;48.736;9.332;2023-04-09T09:51:25;12.40;1.00
20650;DHT22;10484;48.736;9.332;2023-04-09T09:53:54;12.50;1.00
20650;DHT22;10484;48.736;9.332;2023-04-09T09:56:23;12.60;1.00
20650;DHT22;10484;48.736;9.332;2023-04-09T09:59:11;12.60;1.00
20650;DHT22;10484;48.736;9.332;2023-04-09T10:01:37;12.70;1.00
20650;DHT22;10484;48.736;9.332;2023-04-09T10:04:05;12.70;1.00
20650;DHT22;10484;48.736;9.332;2023-04-09T10:06:42;12.80;1.00
20650;DHT22;10484;48.736;9.332;2023-04-09T10:09:08;12.90;1.00
20650;DHT22;10484;48.736;9.332;2023-04-09T10:11:36;13.00;1.00
20650;DHT22;10484;48.736;9.332;2023-04-09T10:14:02;13.00;1.00
20650;DHT22;10484;48.736;9.332;2023-04-09T10:16:29;13.10;1.00
20650;DHT22;10484;48.736;9.332;2023-04-09T10:18:56;13.10;1.00
20650;DHT22;10484;48.736;9.332;2023-04-09T10:24:07;13.30;1.00
20650;DHT22;10484;48.736;9.332;2023-04-09T10:26:34;13.50;1.00
20650;DHT22;10484;48.736;9.332;2023-04-09T10:31:51;13.40;1.00
20650;DHT22;10484;48.736;9.332;2023-04-09T10:34:18;13.40;1.00
20650;DHT22;10484;48.736;9.332;2023-04-09T10:37:08;13.50;1.00
20650;DHT22;10484;48.736;9.332;2023-04-09T10:39:38;13.50;1.00
20650;DHT22;10484;48.736;9.332;2023-04-09T10:42:13;13.60;1.00
20650;DHT22;10484;48.736;9.332;2023-04-09T10:44:39;13.60;1.00
20650;DHT22;10484;48.736;9.332;2023-04-09T10:47:08;13.80;1.00
20650;DHT22;10484;48.736;9.332;2023-04-09T10:49:36;13.80;1.00
20650;DHT22;10484;48.736;9.332;2023-04-09T10:57:19;13.90;1.00
20650;DHT22;10484;48.736;9.332;2023-04-09T10:59:50;13.90;1.00
20650;DHT22;10484;48.736;9.332;2023-04-09T11:07:39;14.20;1.00
20650;DHT22;10484;48.736;9.332;2023-04-09T11:10:08;14.30;1.00
20650;DHT22;10484;48.736;9.332;2023-04-09T11:12:33;14.30;1.00
20650;DHT22;10484;48.736;9.332;2023-04-09T11:14:59;14.30;1.00
20650;DHT22;10484;48.736;9.332;2023-04-09T11:17:25;14.30;1.00
20650;DHT22;10484;48.736;9.332;2023-04-09T11:19:50;14.30;1.00
20650;DHT22;10484;48.736;9.332;2023-04-09T11:22:16;14.40;1.00
20650;DHT22;10484;48.736;9.332;2023-04-09T11:24:42;14.50;1.00
20650;DHT22;10484;48.736;9.332;2023-04-09T11:27:08;14.70;1.00
20650;DHT22;10484;48.736;9.332;2023-04-09T11:29:35;14.70;1.00
20650;DHT22;10484;48.736;9.332;2023-04-09T11:32:00;14.70;1.00
20650;DHT22;10484;48.736;9.332;2023-04-09T11:34:27;14.80;1.00
20650;DHT22;10484;48.736;9.332;2023-04-09T11:36:53;14.80;1.00
20650;DHT22;10484;48.736;9.332;2023-04-09T11:39:19;14.80;1.00
20650;DHT22;10484;48.736;9.332;2023-04-09T11:41:44;14.90;1.00
20650;DHT22;10484;48.736;9.332;2023-04-09T11:44:11;14.90;1.00
20650;DHT22;10484;48.736;9.332;2023-04-09T11:46:37;15.00;1.00
20650;DHT22;10484;48.736;9.332;2023-04-09T11:49:03;15.00;1.00
20650;DHT22;10484;48.736;9.332;2023-04-09T11:51:30;15.10;1.00
20650;DHT22;10484;48.736;9.332;2023-04-09T11:54:04;15.20;1.00
20650;DHT22;10484;48.736;9.332;2023-04-09T11:56:30;15.40;1.00
20650;DHT22;10484;48.736;9.332;2023-04-09T11:58:56;15.60;1.00
20650;DHT22;10484;48.736;9.332;2023-04-09T12:01:22;15.70;1.00
20650;DHT22;10484;48.736;9.332;2023-04-09T12:03:53;15.70;1.00
20650;DHT22;10484;48.736;9.332;2023-04-09T12:06:20;15.60;1.00
20650;DHT22;10484;48.736;9.332;2023-04-09T12:08:54;15.60;1.00
20650;DHT22;10484;48.736;9.332;2023-04-09T12:11:19;15.60;1.00
20650;DHT22;10484;48.736;9.332;2023-04-09T12:13:58;15.80;1.00
20650;DHT22;10484;48.736;9.332;2023-04-09T12:16:23;15.80;1.00
20650;DHT22;10484;48.736;9.332;2023-04-09T12:18:49;15.90;1.00
20650;DHT22;10484;48.736;9.332;2023-04-09T12:21:15;15.80;1.00
20650;DHT22;10484;48.736;9.332;2023-04-09T12:23:41;15.80;1.00
20650;DHT22;10484;48.736;9.332;2023-04-09T12:26:07;16.00;1.00
20650;DHT22;10484;48.736;9.332;2023-04-09T12:28:32;16.10;1.00
20650;DHT22;10484;48.736;9.332;2023-04-09T12:30:58;16.30;1.00
20650;DHT22;10484;48.736;9.332;2023-04-09T12:33:23;16.40;1.00
20650;DHT22;10484;48.736;9.332;2023-04-09T12:35:49;16.50;1.00
20650;DHT22;10484;48.736;9.332;2023-04-09T12:38:15;16.50;1.00
20650;DHT22;10484;48.736;9.332;2023-04-09T12:40:40;16.60;1.00
20650;DHT22;10484;48.736;9.332;2023-04-09T12:43:06;16.60;1.00
20650;DHT22;10484;48.736;9.332;2023-04-09T12:45:32;16.80;1.00
20650;DHT22;10484;48.736;9.332;2023-04-09T12:47:57;16.80;1.00
20650;DHT22;10484;48.736;9.332;2023-04-09T12:50:23;17.00;1.00
20650;DHT22;10484;48.736;9.332;2023-04-09T12:52:49;16.90;1.00
20650;DHT22;10484;48.736;9.332;2023-04-09T12:55:15;16.80;1.00
20650;DHT22;10484;48.736;9.332;2023-04-09T12:57:43;16.80;1.00
20650;DHT22;10484;48.736;9.332;2023-04-09T13:00:10;16.80;1.00
20650;DHT22;10484;48.736;9.332;2023-04-09T13:02:36;16.90;1.00
20650;DHT22;10484;48.736;9.332;2023-04-09T13:05:02;17.00;1.00
20650;DHT22;10484;48.736;9.332;2023-04-09T13:07:29;17.00;1.00
20650;DHT22;10484;48.736;9.332;2023-04-09T13:09:56;17.00;1.00
20650;DHT22;10484;48.736;9.332;2023-04-09T13:12:22;17.10;1.00
20650;DHT22;10484;48.736;9.332;2023-04-09T13:14:49;17.20;1.00
20650;DHT22;10484;48.736;9.332;2023-04-09T13:17:15;17.40;1.00
20650;DHT22;10484;48.736;9.332;2023-04-09T13:19:41;17.40;1.00
20650;DHT22;10484;48.736;9.332;2023-04-09T13:22:07;17.60;1.00
20650;DHT22;10484;48.736;9.332;2023-04-09T13:24:36;17.60;1.00
20650;DHT22;10484;48.736;9.332;2023-04-09T13:27:04;17.60;1.00
20650;DHT22;10484;48.736;9.332;2023-04-09T13:29:30;17.50;1.00
20650;DHT22;10484;48.736;9.332;2023-04-09T13:31:56;17.50;1.00
20650;DHT22;10484;48.736;9.332;2023-04-09T13:34:22;17.60;1.00
20650;DHT22;10484;48.736;9.332;2023-04-09T13:36:48;17.70;1.00
20650;DHT22;10484;48.736;9.332;2023-04-09T13:39:14;17.70;1.00
20650;DHT22;10484;48.736;9.332;2023-04-09T13:41:39;17.80;1.00
20650;DHT22;10484;48.736;9.332;2023-04-09T13:44:05;17.80;1.00
20650;DHT22;10484;48.736;9.332;2023-04-09T13:46:31;17.90;1.00
20650;DHT22;10484;48.736;9.332;2023-04-09T13:48:57;17.90;1.00
20650;DHT22;10484;48.736;9.332;2023-04-09T13:51:24;18.00;1.00
20650;DHT22;10484;48.736;9.332;2023-04-09T13:53:51;18.10;1.00
20650;DHT22;10484;48.736;9.332;2023-04-09T13:56:17;18.10;1.00
20650;DHT22;10484;48.736;9.332;2023-04-09T13:58:42;18.00;1.00
20650;DHT22;10484;48.736;9.332;2023-04-09T14:01:09;17.90;1.00
20650;DHT22;10484;48.736;9.332;2023-04-09T14:03:35;18.10;1.00
20650;DHT22;10484;48.736;9.332;2023-04-09T14:06:03;18.10;1.00
20650;DHT22;10484;48.736;9.332;2023-04-09T14:08:29;18.00;1.00
20650;DHT22;10484;48.736;9.332;2023-04-09T14:10:54;18.00;1.00
20650;DHT22;10484;48.736;9.332;2023-04-09T14:13:21;18.10;1.00
20650;DHT22;10484;48.736;9.332;2023-04-09T14:15:46;18.10;1.00
20650;DHT22;10484;48.736;9.332;2023-04-09T14:18:12;18.20;1.00
20650;DHT22;10484;48.736;9.332;2023-04-09T14:20:38;18.30;1.00
20650;DHT22;10484;48.736;9.332;2023-04-09T14:23:03;18.40;1.00
20650;DHT22;10484;48.736;9.332;2023-04-09T14:25:29;18.40;1.00
20650;DHT22;10484;48.736;9.332;2023-04-09T14:27:55;18.40;1.00
20650;DHT22;10484;48.736;9.332;2023-04-09T14:30:22;18.40;1.00
20650;DHT22;10484;48.736;9.332;2023-04-09T14:32:47;18.50;1.00
20650;DHT22;10484;48.736;9.332;2023-04-09T14:35:13;18.60;1.00
20650;DHT22;10484;48.736;9.332;2023-04-09T14:37:38;18.80;1.00
20650;DHT22;10484;48.736;9.332;2023-04-09T14:40:09;18.80;1.00
20650;DHT22;10484;48.736;9.332;2023-04-09T14:42:34;18.80;1.00
20650;DHT22;10484;48.736;9.332;2023-04-09T14:45:00;18.80;1.00
20650;DHT22;10484;48.736;9.332;2023-04-09T14:47:26;18.80;1.00
20650;DHT22;10484;48.736;9.332;2023-04-09T14:49:52;18.90;1.00
20650;DHT22;10484;48.736;9.332;2023-04-09T14:52:17;18.90;1.00
20650;DHT22;10484;48.736;9.332;2023-04-09T14:54:43;18.80;1.00
20650;DHT22;10484;48.736;9.332;2023-04-09T14:57:08;18.90;1.00
20650;DHT22;10484;48.736;9.332;2023-04-09T14:59:35;18.70;1.00
20650;DHT22;10484;48.736;9.332;2023-04-09T15:02:00;18.70;1.00
20650;DHT22;10484;48.736;9.332;2023-04-09T15:04:27;18.70;1.00
20650;DHT22;10484;48.736;9.332;2023-04-09T15:06:52;18.60;1.00
20650;DHT22;10484;48.736;9.332;2023-04-09T15:09:18;18.60;1.00
20650;DHT22;10484;48.736;9.332;2023-04-09T15:11:43;18.50;1.00
20650;DHT22;10484;48.736;9.332;2023-04-09T15:14:09;18.40;1.00
20650;DHT22;10484;48.736;9.332;2023-04-09T15:16:34;18.50;1.00
20650;DHT22;10484;48.736;9.332;2023-04-09T15:19:03;18.40;1.00
20650;DHT22;10484;48.736;9.332;2023-04-09T15:21:29;18.40;1.00
20650;DHT22;10484;48.736;9.332;2023-04-09T15:23:56;18.30;1.00
20650;DHT22;10484;48.736;9.332;2023-04-09T15:26:23;18.20;1.00
20650;DHT22;10484;48.736;9.332;2023-04-09T15:28:49;18.40;1.00
20650;DHT22;10484;48.736;9.332;2023-04-09T15:31:17;18.50;1.00
20650;DHT22;10484;48.736;9.332;2023-04-09T15:33:43;18.40;1.00
20650;DHT22;10484;48.736;9.332;2023-04-09T15:36:09;18.40;1.00
20650;DHT22;10484;48.736;9.332;2023-04-09T15:38:36;18.40;1.00
20650;DHT22;10484;48.736;9.332;2023-04-09T15:41:01;18.40;1.00
20650;DHT22;10484;48.736;9.332;2023-04-09T15:43:27;18.30;1.00
20650;DHT22;10484;48.736;9.332;2023-04-09T15:45:52;18.30;1.00
20650;DHT22;10484;48.736;9.332;2023-04-09T15:48:18;18.30;1.00
20650;DHT22;10484;48.736;9.332;2023-04-09T15:50:44;18.40;1.00
20650;DHT22;10484;48.736;9.332;2023-04-09T15:53:12;18.20;1.00
20650;DHT22;10484;48.736;9.332;2023-04-09T15:55:38;18.20;1.00
20650;DHT22;10484;48.736;9.332;2023-04-09T15:58:03;18.10;1.00
20650;DHT22;10484;48.736;9.332;2023-04-09T16:00:29;18.20;1.00
20650;DHT22;10484;48.736;9.332;2023-04-09T16:02:55;18.20;1.00
20650;DHT22;10484;48.736;9.332;2023-04-09T16:05:20;18.10;1.00
20650;DHT22;10484;48.736;9.332;2023-04-09T16:07:49;18.00;1.00
20650;DHT22;10484;48.736;9.332;2023-04-09T16:10:15;17.90;1.00
20650;DHT22;10484;48.736;9.332;2023-04-09T16:12:41;17.90;1.00